Lake Isabella, Michigan
Current Conditions -  °F | °C
As of 3:15 PM on Sunday 25 Jan 2015 (Local Time) from KMOP Reporting Station
Clear Clear  
Wind Chill: 12°   Ceiling: Unl
Heat Index: 23°   Visibility: 10mi
Dew Point: 10°   Wind: 12mph
Humidity: 56%   Direction: 50°NE
Pressure: 29.95"   Gusts: NA
Location:  43.6807°N, 84.9799°W
Report Text: KMOP 252015Z AUTO 05010KT 10SM CLR M05/M12 A2995 RMK AO2 T10501125
Loading
Personal Weather Stations






























Interactive Weather Map New forecast layout! Learn more

10-Day Weather Forecast

Advertisements
Track Severe Weather on mobile